Latest Weather Observations for Hobart Airport

IDT60801

Issued at 6:02 am EDT Saturday 25 February 2017 (issued every 30 minutes, with the page automatically refreshed every 10 minutes)

About weather observations | Map of weather stations | Latest weather observations for TAS | Other Formats
Station Details ID: 094008 Name: HOBART AIRPORT Lat: -42.83 Lon: 147.50 Height: 4.0 m
Data from the previous 72 hours. | See also: Recent months at Hobart Airport
Date/Time
EDT
Temp
°C
App
Temp
°C
Dew
Point
°C
Rel
Hum
%
Delta-T
°C
Wind Press
QNH
hPa
Press
MSL
hPa
Rain since
9am
mm
Dir  Spd
km/h
Gust
km/h
Spd
kts
Gust
kts
25/05:30am 8.6 4.7 3.5 70 2.2 WNW 13 17 7 9 1026.0 1026.0 0.0
25/05:00am 9.1 4.5 3.8 69 2.3 WNW 17 20 9 11 1025.8 1025.8 0.0
25/04:30am 9.5 5.4 4.5 71 2.2 NW 15 19 8 10 1025.7 1025.7 0.0
25/04:00am 9.6 6.5 1.6 57 3.3 W 7 11 4 6 1025.5 1025.5 0.0
25/03:30am 9.7 6.2 3.7 66 2.6 SW 11 13 6 7 1025.4 1025.4 0.0
25/03:00am 10.8 5.7 3.2 59 3.3 WSW 19 22 10 12 1025.4 1025.4 0.0
25/02:30am 11.3 8.3 4.1 61 3.2 S 9 15 5 8 1025.6 1025.6 0.0
25/02:00am 11.9 9.3 4.1 59 3.5 NNW 7 11 4 6 1025.9 1025.9 0.0
25/01:30am 10.9 8.4 3.6 60 3.2 S 6 9 3 5 1025.8 1025.8 0.0
25/01:00am 12.0 9.3 3.9 57 3.6 WNW 7 13 4 7 1025.4 1025.4 0.0
25/12:30am 12.2 8.5 4.7 60 3.4 SSW 13 19 7 10 1025.0 1025.0 0.0
25/12:00am 12.6 8.1 4.4 57 3.7 SSW 17 26 9 14 1024.8 1024.8 0.0
 
Date/Time
EDT
Temp
°C
App
Temp
°C
Dew
Point
°C
Rel
Hum
%
Delta-T
°C
Wind Press
QNH
hPa
Press
MSL
hPa
Rain since
9am
mm
Dir  Spd
km/h
Gust
km/h
Spd
kts
Gust
kts
24/11:30pm 12.3 8.6 4.3 58 3.6 S 13 15 7 8 1024.8 1024.8 0.0
24/11:00pm 13.1 9.3 4.0 54 4.1 SSW 13 22 7 12 1024.8 1024.8 0.0
24/10:30pm 12.6 9.3 4.7 58 3.6 S 11 15 6 8 1024.9 1024.9 0.0
24/10:00pm 12.7 9.6 7.1 69 2.7 SSW 13 17 7 9 1024.8 1024.8 0.0
24/09:30pm 13.9 9.6 7.1 63 3.3 SSW 19 26 10 14 1024.5 1024.5 0.0
24/09:00pm 14.5 9.4 4.3 50 4.7 SW 20 30 11 16 1023.9 1023.9 0.0
24/08:30pm 15.0 10.5 4.1 48 5.0 SW 17 20 9 11 1023.4 1023.4 0.0
24/08:00pm 15.4 10.6 4.4 48 5.1 SW 19 30 10 16 1022.9 1022.9 0.0
24/07:30pm 16.2 10.5 5.0 47 5.3 SSW 24 35 13 19 1022.6 1022.6 0.0
24/07:00pm 16.3 10.7 5.4 48 5.2 SW 24 32 13 17 1022.3 1022.3 0.0
24/06:30pm 16.9 12.1 5.4 46 5.5 SW 20 33 11 18 1022.0 1022.0 0.0
24/06:00pm 17.5 10.8 5.5 45 5.8 SSW 30 37 16 20 1021.5 1021.5 0.0
24/05:30pm 18.1 11.5 6.1 45 5.9 SW 30 37 16 20 1021.2 1021.2 0.0
24/05:00pm 17.6 10.8 7.9 53 4.9 SW 33 46 18 25 1021.1 1021.1 0.0
24/04:30pm 17.0 10.5 8.1 55 4.5 SSW 32 41 17 22 1020.8 1020.8 0.0
24/04:05pm 17.4 11.1 7.4 52 5.0 SSW 30 54 16 29 1020.5 1020.5 0.0
24/04:00pm 18.1 12.4 6.9 48 5.6 SW 26 37 14 20 1020.5 1020.5 0.0
24/03:30pm 20.5 17.2 4.6 35 7.7 WNW 11 17 6 9 1020.1 1020.1 0.0
24/03:00pm 19.6 14.7 5.2 38 7.0 SW 20 30 11 16 1020.2 1020.2 0.0
24/02:30pm 20.4 16.3 4.5 35 7.7 WSW 15 24 8 13 1020.2 1020.2 0.0
24/02:00pm 20.3 14.4 4.0 34 7.8 W 24 33 13 18 1020.1 1020.1 0.0
24/01:30pm 19.8 14.3 3.8 34 7.6 WNW 22 33 12 18 1019.9 1019.9 0.0
24/01:00pm 20.3 14.8 4.0 34 7.8 NW 22 33 12 18 1020.3 1020.3 0.0
24/12:30pm 20.0 12.5 3.5 33 7.8 WNW 32 43 17 23 1020.7 1020.7 0.0
24/12:09pm 18.4 10.1 4.3 39 6.7 W 37 56 20 30 1020.8 1020.8 0.0
24/12:00pm 18.8 10.6 4.6 39 6.8 W 37 52 20 28 1020.8 1020.8 0.0
24/11:54am 18.5 12.0 4.7 40 6.6 WNW 28 50 15 27 1020.8 1020.8 0.0
24/11:30am 18.1 10.6 4.7 41 6.4 W 33 46 18 25 1021.0 1021.0 0.0
24/11:00am 18.8 11.8 4.0 37 7.0 WNW 30 48 16 26 1020.8 1020.8 0.0
24/10:54am 18.6 12.0 4.3 38 6.8 WNW 28 48 15 26 1020.9 1020.9 0.0
24/10:30am 17.2 9.9 4.5 43 6.0 WNW 32 43 17 23 1020.8 1020.8 0.0
24/10:00am 16.9 11.1 4.6 44 5.8 WNW 24 37 13 20 1021.0 1021.0 0.0
24/09:30am 15.8 9.7 5.0 48 5.1 NW 26 37 14 20 1021.0 1021.0 0.0
24/09:00am 15.0 11.2 6.0 55 4.3 NNW 15 22 8 12 1020.8 1020.8 0.0
24/08:30am 14.6 10.4 5.5 54 4.3 NNW 17 24 9 13 1020.7 1020.7 0.0
24/08:00am 14.4 9.5 5.2 54 4.3 NW 20 30 11 16 1020.3 1020.3 0.0
24/07:30am 14.4 9.8 5.5 55 4.2 NW 19 26 10 14 1020.2 1020.2 0.0
24/07:00am 14.3 10.2 6.4 59 3.8 NW 17 26 9 14 1020.1 1020.1 0.0
24/06:30am 14.2 10.3 7.0 62 3.5 NW 17 22 9 12 1019.9 1019.9 0.0
24/06:00am 14.2 10.6 8.2 67 3.0 NW 17 24 9 13 1019.5 1019.5 0.0
24/05:30am 14.2 10.6 8.4 68 2.9 NW 17 20 9 11 1019.3 1019.3 0.0
24/05:00am 14.7 10.9 9.2 69 2.8 NW 19 24 10 13 1019.3 1019.3 0.0
24/04:30am 14.9 13.6 11.3 79 1.9 NW 9 13 5 7 1019.3 1019.3 0.0
24/04:00am 14.8 13.6 11.6 81 1.7 NW 9 13 5 7 1019.3 1019.3 0.0
24/03:30am 14.9 15.0 11.5 80 1.8 WSW 2 7 1 4 1019.2 1019.2 0.0
24/03:00am 14.3 14.0 11.3 82 1.6 SSE 4 6 2 3 1019.2 1019.2 0.0
24/02:30am 13.9 13.9 11.1 83 1.5 E 2 6 1 3 1019.3 1019.3 0.0
24/02:00am 14.6 13.7 11.4 81 1.7 SE 7 9 4 5 1019.3 1019.3 0.0
24/01:30am 15.3 14.2 11.8 79 1.9 SE 9 13 5 7 1019.5 1019.5 0.0
24/01:00am 15.2 14.7 12.5 84 1.5 ESE 7 9 4 5 1019.6 1019.6 0.0
24/12:30am 15.4 13.5 11.9 79 1.9 SE 13 17 7 9 1019.4 1019.4 0.0
24/12:00am 15.7 13.2 12.4 81 1.8 SSE 17 22 9 12 1019.6 1019.6 0.0
 
Date/Time
EDT
Temp
°C
App
Temp
°C
Dew
Point
°C
Rel
Hum
%
Delta-T
°C
Wind Press
QNH
hPa
Press
MSL
hPa
Rain since
9am
mm
Dir  Spd
km/h
Gust
km/h
Spd
kts
Gust
kts
23/11:30pm 16.0 13.9 12.3 79 2.0 SSE 15 19 8 10 1019.3 1019.3 0.0
23/11:15pm 16.0 13.5 12.3 79 2.0 SSE 17 20 9 11 1019.1 1019.1 0.0
23/11:04pm 16.1 14.4 12.5 79 2.0 SE 13 19 7 10 1018.8 1018.8 0.0
23/11:00pm 16.0 13.9 12.5 80 1.9 SE 15 24 8 13 1018.7 1018.7 0.0
23/10:52pm 16.0 13.6 12.5 80 1.9 SE 17 24 9 13 1018.6 1018.6 0.0
23/10:30pm 16.4 14.0 12.6 78 2.1 SE 17 24 9 13 1018.4 1018.4 0.0
23/10:00pm 16.8 15.3 13.2 79 2.0 SE 13 20 7 11 1018.3 1018.3 0.0
23/09:30pm 17.5 15.0 13.6 78 2.2 SE 19 28 10 15 1018.0 1018.0 0.0
23/09:24pm 17.6 16.0 13.9 79 2.1 SE 15 24 8 13 1017.8 1017.8 0.0
23/09:00pm 17.8 17.7 13.9 78 2.2 ESE 7 9 4 5 1017.2 1017.2 0.0
23/08:30pm 18.6 17.9 14.4 76 2.4 ENE 11 17 6 9 1016.4 1016.4 0.0
23/08:00pm 19.2 18.1 14.2 73 2.9 ESE 13 19 7 10 1015.6 1015.6 0.0
23/07:30pm 19.8 17.6 14.5 71 3.1 SE 19 30 10 16 1014.9 1014.8 0.0
23/07:00pm 20.7 18.3 14.4 67 3.7 SSE 20 26 11 14 1014.2 1014.1 0.0
23/06:30pm 21.2 19.0 14.4 65 4.0 SE 19 28 10 15 1013.4 1013.3 0.0
23/06:00pm 22.6 19.1 12.2 51 5.9 SE 22 32 12 17 1012.7 1012.6 0.0
23/05:30pm 22.4 18.8 11.9 51 5.9 SE 22 32 12 17 1012.3 1012.2 0.0
23/05:00pm 22.9 19.9 12.6 52 5.9 SE 20 33 11 18 1012.1 1012.0 0.0
23/04:30pm 24.9 21.6 11.7 43 7.5 S 20 30 11 16 1011.8 1011.7 0.0
23/04:00pm 27.2 24.0 8.5 30 10.2 WNW 15 24 8 13 1011.3 1011.2 0.0
23/03:30pm 26.8 23.1 8.1 30 10.1 WNW 17 30 9 16 1011.2 1011.1 0.0
23/03:00pm 26.8 21.8 8.1 30 10.1 WNW 24 33 13 18 1011.1 1011.0 0.0
23/02:30pm 26.2 21.2 8.2 32 9.7 WNW 24 33 13 18 1011.0 1010.9 0.0
23/02:00pm 25.4 20.4 8.0 33 9.3 WNW 24 37 13 20 1010.7 1010.6 0.0
23/01:30pm 25.4 20.0 8.0 33 9.3 WNW 26 41 14 22 1010.4 1010.3 0.0
23/01:00pm 25.4 19.3 8.3 33 9.2 WNW 30 43 16 23 1010.2 1010.1 0.0
23/12:30pm 25.2 19.0 7.7 32 9.3 WNW 30 43 16 23 1009.9 1009.8 0.0
23/12:00pm 24.4 18.2 7.8 34 8.8 WNW 30 43 16 23 1009.9 1009.8 0.0
23/11:30am 24.0 18.1 7.4 34 8.7 NW 28 41 15 22 1009.9 1009.8 0.0
23/11:00am 22.8 16.5 7.5 37 8.0 NW 30 37 16 20 1009.7 1009.6 0.0
23/10:30am 22.6 16.7 7.4 37 7.9 NW 28 37 15 20 1009.5 1009.4 0.0
23/10:00am 22.4 16.0 7.1 37 7.9 NW 30 43 16 23 1009.4 1009.3 0.0
23/09:30am 23.0 17.5 7.5 37 8.1 NW 26 35 14 19 1009.2 1009.1 0.0
23/09:00am 21.6 16.6 8.0 41 7.1 NW 24 32 13 17 1008.8 1008.7 0.0
23/08:30am 21.1 18.6 10.9 52 5.6 NNW 15 24 8 13 1008.2 1008.1 0.0
23/08:00am 20.4 17.9 11.1 55 5.1 NNW 15 20 8 11 1007.7 1007.6 0.0
23/07:30am 19.5 17.7 12.0 62 4.2 N 13 24 7 13 1007.3 1007.2 0.0
23/07:00am 18.7 16.7 11.6 63 3.9 NNW 13 19 7 10 1006.9 1006.8 0.0
23/06:30am 18.8 17.6 11.5 62 4.0 NNW 9 13 5 7 1006.4 1006.3 0.0
23/06:00am 19.8 17.4 11.3 58 4.7 N 15 20 8 11 1006.1 1006.0 0.0
23/05:30am 20.1 16.4 10.3 53 5.3 NNW 20 30 11 16 1005.6 1005.5 0.0
23/05:00am 19.0 16.6 11.4 61 4.2 NNE 15 24 8 13 1005.3 1005.2 0.0
23/04:30am 18.5 17.4 12.0 66 3.6 N 9 15 5 8 1005.7 1005.6 0.0
23/04:00am 18.7 19.5 12.4 67 3.5 CALM 0 6 0 3 1006.5 1006.4 0.0
23/03:30am 19.3 17.7 11.7 61 4.2 NNE 11 15 6 8 1006.2 1006.1 0.0
23/03:00am 18.3 17.2 12.0 66 3.5 NNE 9 15 5 8 1006.2 1006.1 0.0
23/02:30am 18.9 16.8 11.2 61 4.2 NNE 13 15 7 8 1006.6 1006.5 0.0
23/02:00am 18.4 17.4 11.1 62 4.0 NNE 7 11 4 6 1007.1 1007.0 0.0
23/01:30am 18.7 17.1 10.3 58 4.5 NNE 9 11 5 6 1007.5 1007.4 0.0
23/01:00am 19.0 17.2 9.4 53 5.1 NW 9 11 5 6 1008.1 1008.0 0.0
23/12:30am 18.9 16.3 9.5 54 5.0 N 13 17 7 9 1008.2 1008.1 0.0
23/12:00am 17.5 15.5 8.6 56 4.6 N 9 15 5 8 1008.7 1008.6 0.0
 
Date/Time
EDT
Temp
°C
App
Temp
°C
Dew
Point
°C
Rel
Hum
%
Delta-T
°C
Wind Press
QNH
hPa
Press
MSL
hPa
Rain since
9am
mm
Dir  Spd
km/h
Gust
km/h
Spd
kts
Gust
kts
22/11:30pm 17.5 14.7 8.6 56 4.6 NW 13 15 7 8 1009.2 1009.1 0.0
22/11:00pm 20.0 15.9 6.2 40 6.9 N 17 26 9 14 1009.4 1009.3 0.0
22/10:30pm 20.0 16.7 6.5 41 6.8 NNE 13 19 7 10 1009.9 1009.8 0.0
22/10:00pm 21.8 17.5 5.4 34 8.2 NNE 17 22 9 12 1009.7 1009.6 0.0
22/09:30pm 22.6 18.3 5.2 32 8.7 NNE 17 24 9 13 1009.9 1009.8 0.0
22/09:00pm 23.2 18.5 5.0 30 9.1 N 19 24 10 13 1010.1 1010.0 0.0
22/08:30pm 23.5 18.8 6.1 32 8.9 N 20 33 11 18 1009.7 1009.6 0.0
22/08:00pm 23.8 19.3 6.0 31 9.1 NNW 19 33 10 18 1009.7 1009.6 0.0
22/07:30pm 24.8 20.1 5.0 28 10.0 NNW 19 30 10 16 1009.5 1009.4 0.0
22/07:00pm 25.7 20.6 4.1 24 10.8 N 20 35 11 19 1009.2 1009.1 0.0
22/06:30pm 26.0 19.9 5.0 26 10.7 N 26 37 14 20 1009.4 1009.3 0.0
22/06:00pm 26.7 21.3 4.7 24 11.2 N 22 35 12 19 1009.4 1009.3 0.0
22/05:30pm 26.8 20.9 3.9 23 11.5 N 24 37 13 20 1009.4 1009.3 0.0
22/05:00pm 27.4 21.8 5.3 24 11.4 N 24 33 13 18 1010.0 1009.9 0.0
22/04:30pm 27.2 23.0 5.9 25 11.1 N 17 24 9 13 1010.3 1010.2 0.0
22/04:00pm 26.6 21.1 5.7 26 10.8 N 24 33 13 18 1010.8 1010.7 0.0
22/03:30pm 26.2 20.8 4.7 25 10.9 N 22 32 12 17 1011.4 1011.3 0.0
22/03:00pm 26.1 21.1 4.8 25 10.8 N 20 32 11 17 1011.9 1011.8 0.0
22/02:30pm 25.4 19.9 4.1 25 10.6 N 22 30 12 16 1012.5 1012.4 0.0
22/02:00pm 25.1 20.2 4.9 27 10.2 NNW 20 30 11 16 1012.8 1012.7 0.0
22/01:30pm 25.6 21.9 4.5 25 10.6 NNW 13 24 7 13 1013.2 1013.1 0.0
22/01:00pm 24.2 19.7 4.2 27 9.9 NW 17 28 9 15 1013.5 1013.4 0.0
22/12:30pm 24.2 19.6 5.4 29 9.5 NW 19 26 10 14 1014.1 1014.0 0.0
22/12:00pm 23.0 18.2 5.5 32 8.8 N 20 30 11 16 1014.4 1014.3 0.0
22/11:30am 20.8 17.3 8.9 46 6.3 NW 17 26 9 14 1015.2 1015.1 0.0
22/11:00am 18.6 15.3 9.5 55 4.8 NW 17 24 9 13 1015.7 1015.7 0.0
22/10:30am 17.4 14.2 9.8 61 4.0 NW 17 22 9 12 1016.2 1016.2 0.0
22/10:00am 15.6 11.7 9.6 67 3.1 NW 20 26 11 14 1016.4 1016.4 0.0
22/09:30am 14.7 11.6 10.3 75 2.3 NW 17 22 9 12 1016.6 1016.6 0.0
22/09:00am 13.6 11.2 9.9 78 1.9 NW 13 15 7 8 1016.7 1016.7 0.0
22/08:30am 12.3 9.6 10.2 87 1.1 NW 15 19 8 10 1016.9 1016.9 0.0
22/08:00am 12.0 8.8 10.0 87 1.0 NW 17 22 9 12 1016.7 1016.7 0.0
22/07:30am 11.1 9.0 9.9 92 0.6 NNW 11 15 6 8 1016.5 1016.5 0.0
22/07:00am 10.5 8.3 9.3 92 0.6 NW 11 15 6 8 1016.8 1016.8 0.0
22/06:30am 9.5 7.8 8.5 93 0.5 W 7 11 4 6 1016.7 1016.7 0.0

Other Formats:

Comma delimited format used in spreadsheet applications
http://www.bom.gov.au/fwo/IDT60801/IDT60801.94975.axf

JavaScript Object Notation format (JSON) in row-major order
http://www.bom.gov.au/fwo/IDT60801/IDT60801.94975.json